Terminal Aerodrome Forecast
Issued by NWS

Home | Current Version | Previous Version | Text Only | Print | Product List | Glossary On
Versions: 1 2 3 4 5 6 7 8 9 10 11 12
000
FTUS41 KLWX 192300
TAFMTN
TAF
KMTN 192330Z 2000/2024 12008KT P6SM BKN110
     FM200600 12004KT P6SM SCT025 BKN060
     FM201100 00000KT P6SM SCT009 BKN060
     FM201300 VRB03KT P6SM SCT012 BKN050
     FM201600 17007KT P6SM BKN040
      AMD NOT SKED 2002/2012=

USA.gov is the U.S. government's official web portal to all federal, state and local government web resources and services.